Unlu-5 — TCON5 — position and weather

sailwx.info

Track history (hours):
 
Tides and Currents Weather Stations Pressure Air Temp Water Temp Dewpoint Dewpoint Depression Visibility Wind Speed Wind Dir Waves Ship Positions

Unlu-5

Last reported at 2015-Sep-01 03:10 UTC. Time now 2015-Sep-02 12:52 UTC.
Position N 36°37' E 023°22'.

Length 99 m; draft 6.5 m.

Type: Cargo ship. MMSI: 271000854.

Date/timePositionNaut miles runAvg speedWind from/ knotsBaromVisibWave heightAir tempDewpointWater temp
2015-Sep-01 03:10N 36°37' E 023°22'27 7.5
2015-Aug-31 23:32N 37°01' E 023°39'8 7.8
2015-Aug-31 22:33N 37°07' E 023°45'8 7.9
2015-Aug-31 21:33N 37°14' E 023°50'25 7.6
2015-Aug-31 18:11N 37°36' E 024°07'  
2015-Aug-27 09:09N 43°55' E 035°55'5 7.5
2015-Aug-27 08:33N 43°57' E 036°00'8 7.6
2015-Aug-27 07:33N 44°01' E 036°10'8 7.5
2015-Aug-27 06:33N 44°05' E 036°19'7 7.5
2015-Aug-27 05:33N 44°08' E 036°28'8 7.6
2015-Aug-27 04:33N 44°11' E 036°38'59 7.2
2015-Aug-26 20:18N 44°43' E 037°48'1 1.3
2015-Aug-26 19:32N 44°44' E 037°47'0 0.0
2015-Aug-26 18:32N 44°44' E 037°47'0 0.0
2015-Aug-26 17:32N 44°44' E 037°47'0 0.0
2015-Aug-26 16:32N 44°44' E 037°47'0 0.0
2015-Aug-26 15:33N 44°44' E 037°47'0 0.0
2015-Aug-26 14:32N 44°44' E 037°47'0 0.0
2015-Aug-26 13:31N 44°44' E 037°47'0 0.0
2015-Aug-26 12:31N 44°44' E 037°47'0 0.0
2015-Aug-26 11:31N 44°44' E 037°47'0 0.0
2015-Aug-26 10:31N 44°44' E 037°47'0 0.0
2015-Aug-26 09:31N 44°44' E 037°47'0 0.0
2015-Aug-26 08:31N 44°44' E 037°47'0 0.0
2015-Aug-26 07:31N 44°44' E 037°47'0 0.0
2015-Aug-26 06:31N 44°44' E 037°47'0 0.0
2015-Aug-26 05:31N 44°44' E 037°47'0 0.0
2015-Aug-26 04:31N 44°44' E 037°47'0 0.0
2015-Aug-26 03:31N 44°44' E 037°47'0 0.0
2015-Aug-26 02:31N 44°44' E 037°47'0 0.0
2015-Aug-26 01:31N 44°44' E 037°47'0 0.0
2015-Aug-26 00:31N 44°44' E 037°47'0 0.0
2015-Aug-25 23:31N 44°44' E 037°47'0 0.0
2015-Aug-25 22:31N 44°44' E 037°47'0 0.0
2015-Aug-25 21:31N 44°44' E 037°47'0 0.0
2015-Aug-25 20:31N 44°44' E 037°47'0 0.0
2015-Aug-25 19:31N 44°44' E 037°47'0 0.0
2015-Aug-25 18:31N 44°44' E 037°47'0 0.0
2015-Aug-25 17:31N 44°44' E 037°47'0 0.0
2015-Aug-25 16:31N 44°44' E 037°47'0 0.0
2015-Aug-25 15:31N 44°44' E 037°47'0 0.0
2015-Aug-25 14:31N 44°44' E 037°47'0 0.0
2015-Aug-25 13:31N 44°44' E 037°47'0 0.0
2015-Aug-25 12:31N 44°44' E 037°47'0 0.0
2015-Aug-25 11:31N 44°44' E 037°47'0 0.0
2015-Aug-25 10:31N 44°44' E 037°47'0 0.0
2015-Aug-25 09:31N 44°44' E 037°47'0 0.0
2015-Aug-25 08:31N 44°44' E 037°47'0 0.0
2015-Aug-25 07:31N 44°44' E 037°47'0 0.0
2015-Aug-25 06:31N 44°44' E 037°47'0 0.0
2015-Aug-25 05:31N 44°44' E 037°47'0 0.0
2015-Aug-25 04:31N 44°44' E 037°47'0 0.0
2015-Aug-25 03:31N 44°44' E 037°47'0 0.0
2015-Aug-25 02:31N 44°44' E 037°47'0 0.0
2015-Aug-25 01:28N 44°44' E 037°47'0 0.0
2015-Aug-25 00:31N 44°44' E 037°47'0 0.0
2015-Aug-24 23:31N 44°44' E 037°47'0 0.0
2015-Aug-24 22:31N 44°44' E 037°47'0 0.0
2015-Aug-24 21:31N 44°44' E 037°47'0 0.0
2015-Aug-24 20:31N 44°44' E 037°47'0 0.0
2015-Aug-24 19:31N 44°44' E 037°47'0 0.0
2015-Aug-24 18:31N 44°44' E 037°47'0 0.0
2015-Aug-24 17:31N 44°44' E 037°47'0 0.0
2015-Aug-24 16:31N 44°44' E 037°47'0 0.0
2015-Aug-24 15:31N 44°44' E 037°47'0 0.0
2015-Aug-24 14:31N 44°44' E 037°47'0 0.0
2015-Aug-24 13:31N 44°44' E 037°47'0 0.0
2015-Aug-24 12:31N 44°44' E 037°47'0 0.0
2015-Aug-24 11:31N 44°44' E 037°47'0 0.0
2015-Aug-24 10:28N 44°44' E 037°47'0 0.0
2015-Aug-24 09:31N 44°44' E 037°47'0 0.0
2015-Aug-24 08:31N 44°44' E 037°47'0 0.0
2015-Aug-24 07:31N 44°44' E 037°47'0 0.0
2015-Aug-24 06:31N 44°44' E 037°47'0 0.0
2015-Aug-24 05:31N 44°44' E 037°47'0 0.0
2015-Aug-24 04:28N 44°44' E 037°47'0 0.0
2015-Aug-24 03:28N 44°44' E 037°47'0 0.0
2015-Aug-24 02:31N 44°44' E 037°47'0 0.0
2015-Aug-24 01:31N 44°44' E 037°47'0 0.1
2015-Aug-24 00:31N 44°44' E 037°47'1 0.0
2015-Aug-22 17:06N 44°43' E 037°49'2 3.4
2015-Aug-22 16:34N 44°41' E 037°49'6 6.3
2015-Aug-22 15:33N 44°36' E 037°54'7 7.5
2015-Aug-22 14:33N 44°32' E 038°03'1 0.7
2015-Aug-22 13:33N 44°31' E 038°04'0 0.0
2015-Aug-22 12:30N 44°31' E 038°04'0 0.0
2015-Aug-22 11:33N 44°31' E 038°04'0 0.1
2015-Aug-22 10:33N 44°31' E 038°04'0 0.0
2015-Aug-22 09:33N 44°31' E 038°04'0 0.0
2015-Aug-22 08:33N 44°31' E 038°04'0 0.0
2015-Aug-22 07:33N 44°31' E 038°04'0 0.0
2015-Aug-22 06:33N 44°31' E 038°04'0 0.0
2015-Aug-22 05:33N 44°31' E 038°04'0 0.0
2015-Aug-22 04:33N 44°31' E 038°04'0 0.0
2015-Aug-22 03:33N 44°31' E 038°04'  
Track history (hours):
 
Tides and Currents Weather Stations Pressure Air Temp Water Temp Dewpoint Dewpoint Depression Visibility Wind Speed Wind Dir Waves Ship Positions

Unlu-5

Last reported at 2015-Sep-01 03:10 UTC. Time now 2015-Sep-02 12:52 UTC.
Position N 36°37' E 023°22'.

Length 99 m; draft 6.5 m.

Type: Cargo ship. MMSI: 271000854.

Date/timePositionNaut miles runAvg speedWind from/ knotsBaromVisibWave heightAir tempDewpointWater temp
2015-Sep-01 03:10N 36°37' E 023°22'27 7.5
2015-Aug-31 23:32N 37°01' E 023°39'8 7.8
2015-Aug-31 22:33N 37°07' E 023°45'8 7.9
2015-Aug-31 21:33N 37°14' E 023°50'25 7.6
2015-Aug-31 18:11N 37°36' E 024°07'  
2015-Aug-27 09:09N 43°55' E 035°55'5 7.5
2015-Aug-27 08:33N 43°57' E 036°00'8 7.6
2015-Aug-27 07:33N 44°01' E 036°10'8 7.5
2015-Aug-27 06:33N 44°05' E 036°19'7 7.5
2015-Aug-27 05:33N 44°08' E 036°28'8 7.6
2015-Aug-27 04:33N 44°11' E 036°38'59 7.2
2015-Aug-26 20:18N 44°43' E 037°48'1 1.3
2015-Aug-26 19:32N 44°44' E 037°47'0 0.0
2015-Aug-26 18:32N 44°44' E 037°47'0 0.0
2015-Aug-26 17:32N 44°44' E 037°47'0 0.0
2015-Aug-26 16:32N 44°44' E 037°47'0 0.0
2015-Aug-26 15:33N 44°44' E 037°47'0 0.0
2015-Aug-26 14:32N 44°44' E 037°47'0 0.0
2015-Aug-26 13:31N 44°44' E 037°47'0 0.0
2015-Aug-26 12:31N 44°44' E 037°47'0 0.0
2015-Aug-26 11:31N 44°44' E 037°47'0 0.0
2015-Aug-26 10:31N 44°44' E 037°47'0 0.0
2015-Aug-26 09:31N 44°44' E 037°47'0 0.0
2015-Aug-26 08:31N 44°44' E 037°47'0 0.0
2015-Aug-26 07:31N 44°44' E 037°47'0 0.0
2015-Aug-26 06:31N 44°44' E 037°47'0 0.0
2015-Aug-26 05:31N 44°44' E 037°47'0 0.0
2015-Aug-26 04:31N 44°44' E 037°47'0 0.0
2015-Aug-26 03:31N 44°44' E 037°47'0 0.0
2015-Aug-26 02:31N 44°44' E 037°47'0 0.0
2015-Aug-26 01:31N 44°44' E 037°47'0 0.0
2015-Aug-26 00:31N 44°44' E 037°47'0 0.0
2015-Aug-25 23:31N 44°44' E 037°47'0 0.0
2015-Aug-25 22:31N 44°44' E 037°47'0 0.0
2015-Aug-25 21:31N 44°44' E 037°47'0 0.0
2015-Aug-25 20:31N 44°44' E 037°47'0 0.0
2015-Aug-25 19:31N 44°44' E 037°47'0 0.0
2015-Aug-25 18:31N 44°44' E 037°47'0 0.0
2015-Aug-25 17:31N 44°44' E 037°47'0 0.0
2015-Aug-25 16:31N 44°44' E 037°47'0 0.0
2015-Aug-25 15:31N 44°44' E 037°47'0 0.0
2015-Aug-25 14:31N 44°44' E 037°47'0 0.0
2015-Aug-25 13:31N 44°44' E 037°47'0 0.0
2015-Aug-25 12:31N 44°44' E 037°47'0 0.0
2015-Aug-25 11:31N 44°44' E 037°47'0 0.0
2015-Aug-25 10:31N 44°44' E 037°47'0 0.0
2015-Aug-25 09:31N 44°44' E 037°47'0 0.0
2015-Aug-25 08:31N 44°44' E 037°47'0 0.0
2015-Aug-25 07:31N 44°44' E 037°47'0 0.0
2015-Aug-25 06:31N 44°44' E 037°47'0 0.0
2015-Aug-25 05:31N 44°44' E 037°47'0 0.0
2015-Aug-25 04:31N 44°44' E 037°47'0 0.0
2015-Aug-25 03:31N 44°44' E 037°47'0 0.0
2015-Aug-25 02:31N 44°44' E 037°47'0 0.0
2015-Aug-25 01:28N 44°44' E 037°47'0 0.0
2015-Aug-25 00:31N 44°44' E 037°47'0 0.0
2015-Aug-24 23:31N 44°44' E 037°47'0 0.0
2015-Aug-24 22:31N 44°44' E 037°47'0 0.0
2015-Aug-24 21:31N 44°44' E 037°47'0 0.0
2015-Aug-24 20:31N 44°44' E 037°47'0 0.0
2015-Aug-24 19:31N 44°44' E 037°47'0 0.0
2015-Aug-24 18:31N 44°44' E 037°47'0 0.0
2015-Aug-24 17:31N 44°44' E 037°47'0 0.0
2015-Aug-24 16:31N 44°44' E 037°47'0 0.0
2015-Aug-24 15:31N 44°44' E 037°47'0 0.0
2015-Aug-24 14:31N 44°44' E 037°47'0 0.0
2015-Aug-24 13:31N 44°44' E 037°47'0 0.0
2015-Aug-24 12:31N 44°44' E 037°47'0 0.0
2015-Aug-24 11:31N 44°44' E 037°47'0 0.0
2015-Aug-24 10:28N 44°44' E 037°47'0 0.0
2015-Aug-24 09:31N 44°44' E 037°47'0 0.0
2015-Aug-24 08:31N 44°44' E 037°47'0 0.0
2015-Aug-24 07:31N 44°44' E 037°47'0 0.0
2015-Aug-24 06:31N 44°44' E 037°47'0 0.0
2015-Aug-24 05:31N 44°44' E 037°47'0 0.0
2015-Aug-24 04:28N 44°44' E 037°47'0 0.0
2015-Aug-24 03:28N 44°44' E 037°47'0 0.0
2015-Aug-24 02:31N 44°44' E 037°47'0 0.0
2015-Aug-24 01:31N 44°44' E 037°47'0 0.1
2015-Aug-24 00:31N 44°44' E 037°47'1 0.0
2015-Aug-22 17:06N 44°43' E 037°49'2 3.4
2015-Aug-22 16:34N 44°41' E 037°49'6 6.3
2015-Aug-22 15:33N 44°36' E 037°54'7 7.5
2015-Aug-22 14:33N 44°32' E 038°03'1 0.7
2015-Aug-22 13:33N 44°31' E 038°04'0 0.0
2015-Aug-22 12:30N 44°31' E 038°04'0 0.0
2015-Aug-22 11:33N 44°31' E 038°04'0 0.1
2015-Aug-22 10:33N 44°31' E 038°04'0 0.0
2015-Aug-22 09:33N 44°31' E 038°04'0 0.0
2015-Aug-22 08:33N 44°31' E 038°04'0 0.0
2015-Aug-22 07:33N 44°31' E 038°04'0 0.0
2015-Aug-22 06:33N 44°31' E 038°04'0 0.0
2015-Aug-22 05:33N 44°31' E 038°04'0 0.0
2015-Aug-22 04:33N 44°31' E 038°04'0 0.0
2015-Aug-22 03:33N 44°31' E 038°04'  

Dump ship's entire track history